aviador You're here:

KUNO Decoded Metar

WEST PLAINS in MO, USA
Report Time2018-06-18 14:53:00
UTC Time2018-06-18 15:25:31
Flight Rules vfr VFR
Wind240° at 08 Gusting to 18 kt
W.Decomp.*RWY 18: 4.2 kt HW 6.8 kt RCW
W.Rank240° ranks 23
Current wind is above 240° avg. (5.9)
Visibility9999 m
Phenomena:N/A
Clouds:N/A
Expected CloudBase > 2,800 ft AGL from Temp-Dew spread
CeilingNone
Temp28°C (ISA +15)
Dew Point21°C (66% RH)
Heat Index30.2°C
QNH1021 hPa
Density Alt3,058 ft
Elevation1,220 ft
Report Wrong Elevation
Raw Report
KUNO 181453Z AUTO 24008G18KT 10SM CLR 28/21 A3015 RMK AO2 SLP195
T02830206 50011=

Extra information for KUNO:More info

Metar Taf Metar & Taf Last 4 Metars F.Rules Stats Wind Profile Meteogram Temp Stats Airport Information Weather charts Add Link Nearby VenuesMetar ALERT Operation Metar Decoded Social comments

AIRNAV info for KUNO